sensor_id;sensor_type;location;lat;lon;timestamp;P1;durP1;ratioP1;P2;durP2;ratioP2
78844;SDS011;68195;50.854;2.860;2023-07-13T00:00:50;7.65;;;2.85;;
78844;SDS011;68195;50.854;2.860;2023-07-13T00:03:15;8.43;;;2.60;;
78844;SDS011;68195;50.854;2.860;2023-07-13T00:05:42;8.80;;;2.40;;
78844;SDS011;68195;50.854;2.860;2023-07-13T00:08:10;9.85;;;2.30;;
78844;SDS011;68195;50.854;2.860;2023-07-13T00:10:41;7.88;;;2.22;;
78844;SDS011;68195;50.854;2.860;2023-07-13T00:13:07;10.00;;;2.25;;
78844;SDS011;68195;50.854;2.860;2023-07-13T00:15:33;9.43;;;3.08;;
78844;SDS011;68195;50.854;2.860;2023-07-13T00:18:00;10.52;;;3.22;;
78844;SDS011;68195;50.854;2.860;2023-07-13T00:20:28;8.68;;;3.05;;
78844;SDS011;68195;50.854;2.860;2023-07-13T00:22:53;10.93;;;2.30;;
78844;SDS011;68195;50.854;2.860;2023-07-13T00:25:19;8.02;;;2.50;;
78844;SDS011;68195;50.854;2.860;2023-07-13T00:27:48;9.30;;;2.70;;
78844;SDS011;68195;50.854;2.860;2023-07-13T00:30:14;6.88;;;2.60;;
78844;SDS011;68195;50.854;2.860;2023-07-13T00:32:39;9.38;;;2.35;;
78844;SDS011;68195;50.854;2.860;2023-07-13T00:35:05;8.30;;;3.53;;
78844;SDS011;68195;50.854;2.860;2023-07-13T00:37:34;13.02;;;3.38;;
78844;SDS011;68195;50.854;2.860;2023-07-13T00:40:01;11.10;;;3.15;;
78844;SDS011;68195;50.854;2.860;2023-07-13T00:42:31;8.20;;;2.45;;
78844;SDS011;68195;50.854;2.860;2023-07-13T00:47:47;8.13;;;2.85;;
78844;SDS011;68195;50.854;2.860;2023-07-13T00:50:15;14.32;;;3.25;;
78844;SDS011;68195;50.854;2.860;2023-07-13T00:52:44;9.10;;;2.83;;
78844;SDS011;68195;50.854;2.860;2023-07-13T00:55:15;7.50;;;2.30;;
78844;SDS011;68195;50.854;2.860;2023-07-13T00:57:42;7.53;;;2.38;;
78844;SDS011;68195;50.854;2.860;2023-07-13T01:00:12;9.40;;;2.40;;
78844;SDS011;68195;50.854;2.860;2023-07-13T01:02:39;10.05;;;2.90;;
78844;SDS011;68195;50.854;2.860;2023-07-13T01:05:16;10.48;;;2.58;;
78844;SDS011;68195;50.854;2.860;2023-07-13T01:07:45;9.50;;;3.15;;
78844;SDS011;68195;50.854;2.860;2023-07-13T01:10:13;10.88;;;3.63;;
78844;SDS011;68195;50.854;2.860;2023-07-13T01:12:41;8.30;;;2.58;;
78844;SDS011;68195;50.854;2.860;2023-07-13T01:18:04;9.35;;;3.03;;
78844;SDS011;68195;50.854;2.860;2023-07-13T01:20:36;13.38;;;3.30;;
78844;SDS011;68195;50.854;2.860;2023-07-13T01:23:08;9.52;;;3.03;;
78844;SDS011;68195;50.854;2.860;2023-07-13T01:25:38;13.35;;;3.42;;
78844;SDS011;68195;50.854;2.860;2023-07-13T01:28:05;8.98;;;3.85;;
78844;SDS011;68195;50.854;2.860;2023-07-13T01:30:31;10.93;;;3.00;;
78844;SDS011;68195;50.854;2.860;2023-07-13T01:32:57;10.20;;;4.05;;
78844;SDS011;68195;50.854;2.860;2023-07-13T01:35:27;7.65;;;2.60;;
78844;SDS011;68195;50.854;2.860;2023-07-13T01:37:53;11.13;;;2.78;;
78844;SDS011;68195;50.854;2.860;2023-07-13T01:40:19;12.63;;;3.17;;
78844;SDS011;68195;50.854;2.860;2023-07-13T01:42:45;6.80;;;2.38;;
78844;SDS011;68195;50.854;2.860;2023-07-13T01:45:15;12.57;;;3.10;;
78844;SDS011;68195;50.854;2.860;2023-07-13T01:47:41;11.00;;;3.40;;
78844;SDS011;68195;50.854;2.860;2023-07-13T01:50:06;10.45;;;3.03;;
78844;SDS011;68195;50.854;2.860;2023-07-13T01:52:34;11.05;;;3.25;;
78844;SDS011;68195;50.854;2.860;2023-07-13T01:55:02;7.22;;;2.67;;
78844;SDS011;68195;50.854;2.860;2023-07-13T01:57:28;8.10;;;2.60;;
78844;SDS011;68195;50.854;2.860;2023-07-13T01:59:58;7.10;;;2.70;;
78844;SDS011;68195;50.854;2.860;2023-07-13T02:02:26;8.70;;;3.20;;
78844;SDS011;68195;50.854;2.860;2023-07-13T02:04:51;8.18;;;2.67;;
78844;SDS011;68195;50.854;2.860;2023-07-13T02:07:19;7.65;;;2.35;;
78844;SDS011;68195;50.854;2.860;2023-07-13T02:09:45;13.20;;;3.08;;
78844;SDS011;68195;50.854;2.860;2023-07-13T02:12:13;11.07;;;2.55;;
78844;SDS011;68195;50.854;2.860;2023-07-13T02:14:38;6.85;;;2.30;;
78844;SDS011;68195;50.854;2.860;2023-07-13T02:17:04;12.30;;;2.92;;
78844;SDS011;68195;50.854;2.860;2023-07-13T02:19:32;9.00;;;2.90;;
78844;SDS011;68195;50.854;2.860;2023-07-13T02:22:01;8.50;;;2.55;;
78844;SDS011;68195;50.854;2.860;2023-07-13T02:24:27;7.93;;;2.95;;
78844;SDS011;68195;50.854;2.860;2023-07-13T02:26:54;9.00;;;3.08;;
78844;SDS011;68195;50.854;2.860;2023-07-13T02:29:23;6.93;;;2.67;;
78844;SDS011;68195;50.854;2.860;2023-07-13T02:31:48;12.55;;;2.90;;
78844;SDS011;68195;50.854;2.860;2023-07-13T02:34:13;12.93;;;3.03;;
78844;SDS011;68195;50.854;2.860;2023-07-13T02:36:44;8.30;;;3.00;;
78844;SDS011;68195;50.854;2.860;2023-07-13T02:39:11;9.43;;;2.97;;
78844;SDS011;68195;50.854;2.860;2023-07-13T02:41:40;9.75;;;3.10;;
78844;SDS011;68195;50.854;2.860;2023-07-13T02:44:06;9.07;;;2.83;;
78844;SDS011;68195;50.854;2.860;2023-07-13T02:46:34;8.82;;;2.95;;
78844;SDS011;68195;50.854;2.860;2023-07-13T02:49:00;12.63;;;2.58;;
78844;SDS011;68195;50.854;2.860;2023-07-13T02:51:29;6.18;;;2.55;;
78844;SDS011;68195;50.854;2.860;2023-07-13T02:53:55;8.65;;;3.50;;
78844;SDS011;68195;50.854;2.860;2023-07-13T02:56:23;10.20;;;3.22;;
78844;SDS011;68195;50.854;2.860;2023-07-13T02:58:53;10.50;;;2.90;;
78844;SDS011;68195;50.854;2.860;2023-07-13T03:01:21;10.02;;;2.38;;
78844;SDS011;68195;50.854;2.860;2023-07-13T03:03:51;10.60;;;2.95;;
78844;SDS011;68195;50.854;2.860;2023-07-13T03:06:17;11.95;;;3.17;;
78844;SDS011;68195;50.854;2.860;2023-07-13T03:08:46;5.78;;;2.58;;
78844;SDS011;68195;50.854;2.860;2023-07-13T03:11:14;11.30;;;3.42;;
78844;SDS011;68195;50.854;2.860;2023-07-13T03:13:42;9.05;;;2.65;;
78844;SDS011;68195;50.854;2.860;2023-07-13T03:16:08;8.95;;;3.15;;
78844;SDS011;68195;50.854;2.860;2023-07-13T03:18:37;9.60;;;2.75;;
78844;SDS011;68195;50.854;2.860;2023-07-13T03:21:03;9.40;;;3.63;;
78844;SDS011;68195;50.854;2.860;2023-07-13T03:23:30;9.07;;;3.33;;
78844;SDS011;68195;50.854;2.860;2023-07-13T03:26:07;9.18;;;3.00;;
78844;SDS011;68195;50.854;2.860;2023-07-13T03:28:37;7.05;;;2.78;;
78844;SDS011;68195;50.854;2.860;2023-07-13T03:31:05;9.40;;;3.15;;
78844;SDS011;68195;50.854;2.860;2023-07-13T03:33:35;13.18;;;3.13;;
78844;SDS011;68195;50.854;2.860;2023-07-13T03:36:04;12.90;;;4.32;;
78844;SDS011;68195;50.854;2.860;2023-07-13T03:38:34;7.93;;;2.88;;
78844;SDS011;68195;50.854;2.860;2023-07-13T03:41:00;11.13;;;3.25;;
78844;SDS011;68195;50.854;2.860;2023-07-13T03:43:26;12.10;;;3.10;;
78844;SDS011;68195;50.854;2.860;2023-07-13T03:45:53;14.55;;;3.40;;
78844;SDS011;68195;50.854;2.860;2023-07-13T03:48:19;10.25;;;3.63;;
78844;SDS011;68195;50.854;2.860;2023-07-13T03:50:46;11.05;;;3.42;;
78844;SDS011;68195;50.854;2.860;2023-07-13T03:53:12;11.95;;;3.50;;
78844;SDS011;68195;50.854;2.860;2023-07-13T03:55:40;11.13;;;3.72;;
78844;SDS011;68195;50.854;2.860;2023-07-13T04:00:52;15.38;;;3.42;;
78844;SDS011;68195;50.854;2.860;2023-07-13T04:03:17;8.25;;;3.53;;
78844;SDS011;68195;50.854;2.860;2023-07-13T04:05:45;9.73;;;2.45;;
78844;SDS011;68195;50.854;2.860;2023-07-13T04:08:11;9.55;;;2.85;;
78844;SDS011;68195;50.854;2.860;2023-07-13T04:10:36;8.10;;;2.65;;
78844;SDS011;68195;50.854;2.860;2023-07-13T04:13:04;7.55;;;2.42;;
78844;SDS011;68195;50.854;2.860;2023-07-13T04:15:30;7.70;;;2.40;;
78844;SDS011;68195;50.854;2.860;2023-07-13T04:17:57;10.68;;;4.00;;
78844;SDS011;68195;50.854;2.860;2023-07-13T04:20:25;10.07;;;3.08;;
78844;SDS011;68195;50.854;2.860;2023-07-13T04:22:51;9.50;;;2.60;;
78844;SDS011;68195;50.854;2.860;2023-07-13T04:25:18;8.00;;;2.95;;
78844;SDS011;68195;50.854;2.860;2023-07-13T04:27:47;7.38;;;2.88;;
78844;SDS011;68195;50.854;2.860;2023-07-13T04:30:14;9.00;;;2.50;;
78844;SDS011;68195;50.854;2.860;2023-07-13T04:32:42;8.27;;;3.30;;
78844;SDS011;68195;50.854;2.860;2023-07-13T04:35:08;6.63;;;3.30;;
78844;SDS011;68195;50.854;2.860;2023-07-13T04:37:38;12.85;;;3.15;;
78844;SDS011;68195;50.854;2.860;2023-07-13T04:40:06;8.23;;;3.08;;
78844;SDS011;68195;50.854;2.860;2023-07-13T04:42:36;7.35;;;3.00;;
78844;SDS011;68195;50.854;2.860;2023-07-13T04:45:05;9.93;;;3.22;;
78844;SDS011;68195;50.854;2.860;2023-07-13T04:47:34;9.88;;;2.78;;
78844;SDS011;68195;50.854;2.860;2023-07-13T04:50:00;9.98;;;2.63;;
78844;SDS011;68195;50.854;2.860;2023-07-13T04:52:25;10.95;;;2.80;;
78844;SDS011;68195;50.854;2.860;2023-07-13T04:54:50;8.23;;;2.92;;
78844;SDS011;68195;50.854;2.860;2023-07-13T04:57:16;14.20;;;3.67;;
78844;SDS011;68195;50.854;2.860;2023-07-13T04:59:43;15.18;;;5.10;;
78844;SDS011;68195;50.854;2.860;2023-07-13T05:02:09;16.65;;;3.60;;
78844;SDS011;68195;50.854;2.860;2023-07-13T05:04:38;19.00;;;3.88;;
78844;SDS011;68195;50.854;2.860;2023-07-13T05:07:05;11.38;;;3.55;;
78844;SDS011;68195;50.854;2.860;2023-07-13T05:09:33;8.88;;;2.90;;
78844;SDS011;68195;50.854;2.860;2023-07-13T05:11:59;6.97;;;3.58;;
78844;SDS011;68195;50.854;2.860;2023-07-13T05:14:26;11.50;;;3.63;;
78844;SDS011;68195;50.854;2.860;2023-07-13T05:16:54;13.07;;;2.80;;
78844;SDS011;68195;50.854;2.860;2023-07-13T05:19:19;9.85;;;3.42;;
78844;SDS011;68195;50.854;2.860;2023-07-13T05:21:45;10.00;;;3.60;;
78844;SDS011;68195;50.854;2.860;2023-07-13T05:24:10;9.18;;;2.92;;
78844;SDS011;68195;50.854;2.860;2023-07-13T05:26:35;10.45;;;3.38;;
78844;SDS011;68195;50.854;2.860;2023-07-13T05:29:01;11.45;;;3.88;;
78844;SDS011;68195;50.854;2.860;2023-07-13T05:31:26;12.07;;;3.47;;
78844;SDS011;68195;50.854;2.860;2023-07-13T05:33:53;9.55;;;3.25;;
78844;SDS011;68195;50.854;2.860;2023-07-13T05:36:18;10.23;;;2.90;;
78844;SDS011;68195;50.854;2.860;2023-07-13T05:38:43;9.57;;;3.20;;
78844;SDS011;68195;50.854;2.860;2023-07-13T05:41:09;10.30;;;3.25;;
78844;SDS011;68195;50.854;2.860;2023-07-13T05:43:34;10.05;;;2.85;;
78844;SDS011;68195;50.854;2.860;2023-07-13T05:46:00;8.63;;;2.97;;
78844;SDS011;68195;50.854;2.860;2023-07-13T05:48:25;9.23;;;2.72;;
78844;SDS011;68195;50.854;2.860;2023-07-13T05:50:53;14.10;;;3.10;;
78844;SDS011;68195;50.854;2.860;2023-07-13T05:53:18;8.30;;;3.42;;
78844;SDS011;68195;50.854;2.860;2023-07-13T05:55:44;14.45;;;4.60;;
78844;SDS011;68195;50.854;2.860;2023-07-13T05:58:15;10.35;;;3.22;;
78844;SDS011;68195;50.854;2.860;2023-07-13T06:00:42;8.52;;;3.30;;
78844;SDS011;68195;50.854;2.860;2023-07-13T06:03:07;8.40;;;3.03;;
78844;SDS011;68195;50.854;2.860;2023-07-13T06:05:37;11.88;;;3.13;;
78844;SDS011;68195;50.854;2.860;2023-07-13T06:08:06;7.40;;;3.78;;
78844;SDS011;68195;50.854;2.860;2023-07-13T06:10:35;8.48;;;2.97;;
78844;SDS011;68195;50.854;2.860;2023-07-13T06:13:03;8.15;;;2.92;;
78844;SDS011;68195;50.854;2.860;2023-07-13T06:15:29;7.13;;;2.83;;
78844;SDS011;68195;50.854;2.860;2023-07-13T06:17:54;11.18;;;3.17;;
78844;SDS011;68195;50.854;2.860;2023-07-13T06:20:20;10.13;;;3.17;;
78844;SDS011;68195;50.854;2.860;2023-07-13T06:22:48;13.68;;;3.67;;
78844;SDS011;68195;50.854;2.860;2023-07-13T06:25:13;9.13;;;2.63;;
78844;SDS011;68195;50.854;2.860;2023-07-13T06:27:38;9.73;;;3.15;;
78844;SDS011;68195;50.854;2.860;2023-07-13T06:30:04;8.40;;;2.63;;
78844;SDS011;68195;50.854;2.860;2023-07-13T06:32:32;9.10;;;3.88;;
78844;SDS011;68195;50.854;2.860;2023-07-13T06:34:59;6.03;;;2.58;;
78844;SDS011;68195;50.854;2.860;2023-07-13T06:37:27;11.15;;;3.63;;
78844;SDS011;68195;50.854;2.860;2023-07-13T06:39:55;9.90;;;2.88;;
78844;SDS011;68195;50.854;2.860;2023-07-13T06:42:23;8.82;;;3.05;;
78844;SDS011;68195;50.854;2.860;2023-07-13T06:44:51;10.07;;;2.80;;
78844;SDS011;68195;50.854;2.860;2023-07-13T06:47:16;9.68;;;3.35;;
78844;SDS011;68195;50.854;2.860;2023-07-13T06:49:41;10.88;;;2.90;;
78844;SDS011;68195;50.854;2.860;2023-07-13T06:52:07;10.55;;;3.15;;
78844;SDS011;68195;50.854;2.860;2023-07-13T06:54:32;11.45;;;3.17;;
78844;SDS011;68195;50.854;2.860;2023-07-13T06:57:00;6.85;;;2.80;;
78844;SDS011;68195;50.854;2.860;2023-07-13T06:59:25;13.23;;;3.47;;
78844;SDS011;68195;50.854;2.860;2023-07-13T07:01:53;9.05;;;3.75;;
78844;SDS011;68195;50.854;2.860;2023-07-13T07:04:19;6.85;;;3.08;;
78844;SDS011;68195;50.854;2.860;2023-07-13T07:06:44;7.80;;;2.92;;
78844;SDS011;68195;50.854;2.860;2023-07-13T07:09:10;6.78;;;2.58;;
78844;SDS011;68195;50.854;2.860;2023-07-13T07:11:36;10.48;;;2.88;;
78844;SDS011;68195;50.854;2.860;2023-07-13T07:14:03;8.80;;;2.95;;
78844;SDS011;68195;50.854;2.860;2023-07-13T07:16:32;13.23;;;3.03;;
78844;SDS011;68195;50.854;2.860;2023-07-13T07:19:02;8.98;;;3.55;;
78844;SDS011;68195;50.854;2.860;2023-07-13T07:21:30;12.90;;;3.83;;
78844;SDS011;68195;50.854;2.860;2023-07-13T07:23:56;7.22;;;2.63;;
78844;SDS011;68195;50.854;2.860;2023-07-13T07:26:25;7.53;;;3.15;;
78844;SDS011;68195;50.854;2.860;2023-07-13T07:28:50;5.25;;;3.65;;
78844;SDS011;68195;50.854;2.860;2023-07-13T07:31:16;7.45;;;3.72;;
78844;SDS011;68195;50.854;2.860;2023-07-13T07:33:41;7.35;;;2.95;;
78844;SDS011;68195;50.854;2.860;2023-07-13T07:36:08;8.85;;;3.08;;
78844;SDS011;68195;50.854;2.860;2023-07-13T07:38:33;9.48;;;3.08;;
78844;SDS011;68195;50.854;2.860;2023-07-13T07:41:02;8.57;;;2.90;;
78844;SDS011;68195;50.854;2.860;2023-07-13T07:43:30;8.77;;;2.67;;
78844;SDS011;68195;50.854;2.860;2023-07-13T07:45:56;6.95;;;2.80;;
78844;SDS011;68195;50.854;2.860;2023-07-13T07:48:22;8.68;;;2.80;;
78844;SDS011;68195;50.854;2.860;2023-07-13T07:50:50;6.72;;;2.63;;
78844;SDS011;68195;50.854;2.860;2023-07-13T07:53:20;8.65;;;3.22;;
78844;SDS011;68195;50.854;2.860;2023-07-13T07:55:46;7.63;;;2.47;;
78844;SDS011;68195;50.854;2.860;2023-07-13T07:58:13;5.53;;;2.30;;
78844;SDS011;68195;50.854;2.860;2023-07-13T08:00:39;8.07;;;2.90;;
78844;SDS011;68195;50.854;2.860;2023-07-13T08:03:05;7.90;;;3.45;;
78844;SDS011;68195;50.854;2.860;2023-07-13T08:05:30;5.90;;;2.50;;
78844;SDS011;68195;50.854;2.860;2023-07-13T08:07:59;8.60;;;2.90;;
78844;SDS011;68195;50.854;2.860;2023-07-13T08:10:25;7.22;;;2.78;;
78844;SDS011;68195;50.854;2.860;2023-07-13T08:12:52;10.02;;;3.03;;
78844;SDS011;68195;50.854;2.860;2023-07-13T08:15:20;6.07;;;2.55;;
78844;SDS011;68195;50.854;2.860;2023-07-13T08:17:47;5.72;;;2.00;;
78844;SDS011;68195;50.854;2.860;2023-07-13T08:20:14;6.25;;;2.03;;
78844;SDS011;68195;50.854;2.860;2023-07-13T08:22:40;5.85;;;2.42;;
78844;SDS011;68195;50.854;2.860;2023-07-13T08:25:05;4.30;;;2.40;;
78844;SDS011;68195;50.854;2.860;2023-07-13T08:27:31;7.53;;;2.28;;
78844;SDS011;68195;50.854;2.860;2023-07-13T08:30:00;7.70;;;3.05;;
78844;SDS011;68195;50.854;2.860;2023-07-13T08:32:25;10.10;;;2.88;;
78844;SDS011;68195;50.854;2.860;2023-07-13T08:34:51;8.75;;;2.90;;
78844;SDS011;68195;50.854;2.860;2023-07-13T08:37:19;6.82;;;2.60;;
78844;SDS011;68195;50.854;2.860;2023-07-13T08:39:44;3.42;;;2.10;;
78844;SDS011;68195;50.854;2.860;2023-07-13T08:47:37;6.72;;;2.47;;
78844;SDS011;68195;50.854;2.860;2023-07-13T08:50:09;6.80;;;2.40;;
78844;SDS011;68195;50.854;2.860;2023-07-13T08:52:38;9.38;;;2.13;;
78844;SDS011;68195;50.854;2.860;2023-07-13T08:55:21;7.13;;;2.35;;
78844;SDS011;68195;50.854;2.860;2023-07-13T08:58:02;5.72;;;2.10;;
78844;SDS011;68195;50.854;2.860;2023-07-13T09:00:39;8.20;;;2.72;;
78844;SDS011;68195;50.854;2.860;2023-07-13T09:03:22;4.72;;;2.78;;
78844;SDS011;68195;50.854;2.860;2023-07-13T09:05:54;8.25;;;2.50;;
78844;SDS011;68195;50.854;2.860;2023-07-13T09:14:33;5.88;;;2.50;;
78844;SDS011;68195;50.854;2.860;2023-07-13T09:17:00;5.00;;;1.90;;
78844;SDS011;68195;50.854;2.860;2023-07-13T09:19:30;4.05;;;1.98;;
78844;SDS011;68195;50.854;2.860;2023-07-13T09:21:58;5.35;;;2.03;;
78844;SDS011;68195;50.854;2.860;2023-07-13T09:27:01;6.18;;;2.50;;
78844;SDS011;68195;50.854;2.860;2023-07-13T09:29:46;5.00;;;2.30;;
78844;SDS011;68195;50.854;2.860;2023-07-13T09:32:19;4.07;;;2.00;;
78844;SDS011;68195;50.854;2.860;2023-07-13T09:34:52;8.13;;;1.98;;
78844;SDS011;68195;50.854;2.860;2023-07-13T09:37:22;7.03;;;2.33;;
78844;SDS011;68195;50.854;2.860;2023-07-13T09:39:53;6.63;;;2.08;;
78844;SDS011;68195;50.854;2.860;2023-07-13T09:42:23;3.22;;;1.65;;
78844;SDS011;68195;50.854;2.860;2023-07-13T09:47:16;4.77;;;2.37;;
78844;SDS011;68195;50.854;2.860;2023-07-13T09:49:44;4.93;;;2.17;;
78844;SDS011;68195;50.854;2.860;2023-07-13T09:52:12;5.40;;;2.20;;
78844;SDS011;68195;50.854;2.860;2023-07-13T09:54:45;5.28;;;2.10;;
78844;SDS011;68195;50.854;2.860;2023-07-13T09:57:22;3.80;;;1.98;;
78844;SDS011;68195;50.854;2.860;2023-07-13T09:59:51;7.10;;;2.35;;
78844;SDS011;68195;50.854;2.860;2023-07-13T10:04:58;4.45;;;2.80;;
78844;SDS011;68195;50.854;2.860;2023-07-13T10:07:24;8.93;;;2.88;;
78844;SDS011;68195;50.854;2.860;2023-07-13T10:09:53;3.50;;;2.17;;
78844;SDS011;68195;50.854;2.860;2023-07-13T10:12:20;6.05;;;2.55;;
78844;SDS011;68195;50.854;2.860;2023-07-13T10:14:48;5.13;;;2.08;;
78844;SDS011;68195;50.854;2.860;2023-07-13T10:17:20;5.03;;;2.80;;
78844;SDS011;68195;50.854;2.860;2023-07-13T10:20:03;5.25;;;2.13;;
78844;SDS011;68195;50.854;2.860;2023-07-13T10:25:34;6.72;;;2.33;;
78844;SDS011;68195;50.854;2.860;2023-07-13T10:28:04;7.95;;;2.15;;
78844;SDS011;68195;50.854;2.860;2023-07-13T10:30:53;8.00;;;3.58;;
78844;SDS011;68195;50.854;2.860;2023-07-13T10:33:21;7.88;;;2.47;;
78844;SDS011;68195;50.854;2.860;2023-07-13T10:35:53;5.00;;;2.70;;
78844;SDS011;68195;50.854;2.860;2023-07-13T10:38:28;5.75;;;2.22;;
78844;SDS011;68195;50.854;2.860;2023-07-13T10:41:01;3.03;;;2.00;;
78844;SDS011;68195;50.854;2.860;2023-07-13T10:43:39;5.00;;;1.83;;
78844;SDS011;68195;50.854;2.860;2023-07-13T10:46:10;4.22;;;1.90;;
78844;SDS011;68195;50.854;2.860;2023-07-13T10:48:37;5.10;;;1.75;;
78844;SDS011;68195;50.854;2.860;2023-07-13T10:51:05;6.50;;;2.08;;
78844;SDS011;68195;50.854;2.860;2023-07-13T10:53:36;4.85;;;2.35;;
78844;SDS011;68195;50.854;2.860;2023-07-13T10:56:19;2.78;;;1.55;;
78844;SDS011;68195;50.854;2.860;2023-07-13T11:04:24;6.00;;;1.83;;
78844;SDS011;68195;50.854;2.860;2023-07-13T11:06:56;4.05;;;1.75;;
78844;SDS011;68195;50.854;2.860;2023-07-13T11:12:06;3.15;;;1.52;;
78844;SDS011;68195;50.854;2.860;2023-07-13T11:22:44;6.18;;;1.70;;
78844;SDS011;68195;50.854;2.860;2023-07-13T11:33:13;4.80;;;1.90;;
78844;SDS011;68195;50.854;2.860;2023-07-13T11:35:52;3.35;;;1.80;;
78844;SDS011;68195;50.854;2.860;2023-07-13T11:38:19;2.28;;;1.40;;
78844;SDS011;68195;50.854;2.860;2023-07-13T11:40:47;3.58;;;1.55;;
78844;SDS011;68195;50.854;2.860;2023-07-13T11:43:15;3.58;;;1.98;;
78844;SDS011;68195;50.854;2.860;2023-07-13T11:45:42;2.92;;;1.45;;
78844;SDS011;68195;50.854;2.860;2023-07-13T11:48:18;5.20;;;1.63;;
78844;SDS011;68195;50.854;2.860;2023-07-13T11:53:28;5.88;;;2.22;;
78844;SDS011;68195;50.854;2.860;2023-07-13T11:56:00;2.30;;;1.30;;
78844;SDS011;68195;50.854;2.860;2023-07-13T11:58:26;4.45;;;1.63;;
78844;SDS011;68195;50.854;2.860;2023-07-13T12:00:53;2.28;;;1.35;;
78844;SDS011;68195;50.854;2.860;2023-07-13T12:03:21;2.55;;;1.30;;
78844;SDS011;68195;50.854;2.860;2023-07-13T12:05:56;3.75;;;1.77;;
78844;SDS011;68195;50.854;2.860;2023-07-13T12:08:26;3.95;;;1.60;;
78844;SDS011;68195;50.854;2.860;2023-07-13T12:11:04;2.60;;;1.35;;
78844;SDS011;68195;50.854;2.860;2023-07-13T12:13:35;3.05;;;1.60;;
78844;SDS011;68195;50.854;2.860;2023-07-13T12:16:29;3.65;;;1.45;;
78844;SDS011;68195;50.854;2.860;2023-07-13T12:18:57;4.13;;;1.30;;
78844;SDS011;68195;50.854;2.860;2023-07-13T12:21:31;4.93;;;1.67;;
78844;SDS011;68195;50.854;2.860;2023-07-13T12:24:02;4.13;;;1.70;;
78844;SDS011;68195;50.854;2.860;2023-07-13T12:26:29;4.55;;;1.60;;
78844;SDS011;68195;50.854;2.860;2023-07-13T12:28:55;4.85;;;1.60;;
78844;SDS011;68195;50.854;2.860;2023-07-13T12:34:16;3.47;;;1.52;;
78844;SDS011;68195;50.854;2.860;2023-07-13T12:42:24;3.58;;;1.70;;
78844;SDS011;68195;50.854;2.860;2023-07-13T12:44:53;3.17;;;1.35;;
78844;SDS011;68195;50.854;2.860;2023-07-13T12:47:23;5.30;;;1.52;;
78844;SDS011;68195;50.854;2.860;2023-07-13T12:49:50;3.78;;;1.67;;
78844;SDS011;68195;50.854;2.860;2023-07-13T12:52:28;2.58;;;1.42;;
78844;SDS011;68195;50.854;2.860;2023-07-13T12:55:15;3.72;;;1.38;;
78844;SDS011;68195;50.854;2.860;2023-07-13T12:57:53;2.42;;;1.48;;
78844;SDS011;68195;50.854;2.860;2023-07-13T13:00:29;3.10;;;1.30;;
78844;SDS011;68195;50.854;2.860;2023-07-13T13:02:57;6.57;;;1.50;;
78844;SDS011;68195;50.854;2.860;2023-07-13T13:05:28;3.55;;;1.83;;
78844;SDS011;68195;50.854;2.860;2023-07-13T13:07:57;2.40;;;1.45;;
78844;SDS011;68195;50.854;2.860;2023-07-13T13:10:25;1.52;;;1.08;;
78844;SDS011;68195;50.854;2.860;2023-07-13T13:12:57;2.88;;;1.40;;
78844;SDS011;68195;50.854;2.860;2023-07-13T13:15:28;2.58;;;1.13;;
78844;SDS011;68195;50.854;2.860;2023-07-13T13:17:55;3.65;;;1.27;;
78844;SDS011;68195;50.854;2.860;2023-07-13T13:20:21;3.40;;;1.52;;
78844;SDS011;68195;50.854;2.860;2023-07-13T13:22:48;2.47;;;1.42;;
78844;SDS011;68195;50.854;2.860;2023-07-13T13:25:14;2.40;;;1.30;;
78844;SDS011;68195;50.854;2.860;2023-07-13T13:27:40;2.00;;;1.35;;
78844;SDS011;68195;50.854;2.860;2023-07-13T13:30:14;2.58;;;1.65;;
78844;SDS011;68195;50.854;2.860;2023-07-13T13:32:42;3.15;;;1.20;;
78844;SDS011;68195;50.854;2.860;2023-07-13T13:35:13;2.15;;;1.20;;
78844;SDS011;68195;50.854;2.860;2023-07-13T13:37:40;3.47;;;1.30;;
78844;SDS011;68195;50.854;2.860;2023-07-13T13:40:16;3.95;;;1.52;;
78844;SDS011;68195;50.854;2.860;2023-07-13T13:42:43;2.65;;;1.60;;
78844;SDS011;68195;50.854;2.860;2023-07-13T13:45:11;3.20;;;1.20;;
78844;SDS011;68195;50.854;2.860;2023-07-13T13:47:39;3.20;;;1.42;;
78844;SDS011;68195;50.854;2.860;2023-07-13T13:50:16;4.45;;;1.60;;
78844;SDS011;68195;50.854;2.860;2023-07-13T13:52:44;3.75;;;1.30;;
78844;SDS011;68195;50.854;2.860;2023-07-13T13:55:20;3.67;;;1.25;;
78844;SDS011;68195;50.854;2.860;2023-07-13T13:57:48;2.65;;;1.70;;
78844;SDS011;68195;50.854;2.860;2023-07-13T14:00:16;2.67;;;1.30;;
78844;SDS011;68195;50.854;2.860;2023-07-13T14:02:44;3.53;;;1.50;;
78844;SDS011;68195;50.854;2.860;2023-07-13T14:05:23;3.13;;;1.50;;
78844;SDS011;68195;50.854;2.860;2023-07-13T14:07:55;3.00;;;1.50;;
78844;SDS011;68195;50.854;2.860;2023-07-13T14:10:21;2.53;;;2.00;;
78844;SDS011;68195;50.854;2.860;2023-07-13T14:12:50;1.67;;;1.15;;
78844;SDS011;68195;50.854;2.860;2023-07-13T14:15:21;2.70;;;1.20;;
78844;SDS011;68195;50.854;2.860;2023-07-13T14:17:49;3.03;;;1.40;;
78844;SDS011;68195;50.854;2.860;2023-07-13T14:20:15;2.85;;;1.52;;
78844;SDS011;68195;50.854;2.860;2023-07-13T14:22:46;3.15;;;1.38;;
78844;SDS011;68195;50.854;2.860;2023-07-13T14:25:15;2.42;;;1.13;;
78844;SDS011;68195;50.854;2.860;2023-07-13T14:27:42;3.75;;;1.48;;
78844;SDS011;68195;50.854;2.860;2023-07-13T14:30:15;4.00;;;1.50;;
78844;SDS011;68195;50.854;2.860;2023-07-13T14:32:43;5.60;;;1.40;;
78844;SDS011;68195;50.854;2.860;2023-07-13T14:35:13;3.53;;;1.58;;
78844;SDS011;68195;50.854;2.860;2023-07-13T14:37:40;2.75;;;1.33;;
78844;SDS011;68195;50.854;2.860;2023-07-13T14:40:19;4.20;;;1.50;;
78844;SDS011;68195;50.854;2.860;2023-07-13T14:42:49;3.20;;;1.30;;
78844;SDS011;68195;50.854;2.860;2023-07-13T14:45:16;3.00;;;1.27;;
78844;SDS011;68195;50.854;2.860;2023-07-13T14:47:44;2.67;;;1.30;;
78844;SDS011;68195;50.854;2.860;2023-07-13T14:50:30;2.10;;;1.23;;
78844;SDS011;68195;50.854;2.860;2023-07-13T14:53:00;7.95;;;1.50;;
78844;SDS011;68195;50.854;2.860;2023-07-13T14:55:25;4.05;;;1.45;;
78844;SDS011;68195;50.854;2.860;2023-07-13T14:57:51;2.67;;;1.42;;
78844;SDS011;68195;50.854;2.860;2023-07-13T15:00:18;3.17;;;1.23;;
78844;SDS011;68195;50.854;2.860;2023-07-13T15:02:53;2.17;;;1.40;;
78844;SDS011;68195;50.854;2.860;2023-07-13T15:05:28;1.95;;;1.55;;
78844;SDS011;68195;50.854;2.860;2023-07-13T15:07:58;5.07;;;1.50;;
78844;SDS011;68195;50.854;2.860;2023-07-13T15:10:27;2.13;;;1.23;;
78844;SDS011;68195;50.854;2.860;2023-07-13T15:13:00;2.70;;;1.10;;
78844;SDS011;68195;50.854;2.860;2023-07-13T15:15:44;6.10;;;2.20;;
78844;SDS011;68195;50.854;2.860;2023-07-13T15:18:11;2.15;;;1.42;;
78844;SDS011;68195;50.854;2.860;2023-07-13T15:20:39;2.83;;;1.20;;
78844;SDS011;68195;50.854;2.860;2023-07-13T15:23:05;3.75;;;1.30;;
78844;SDS011;68195;50.854;2.860;2023-07-13T15:25:34;2.70;;;1.10;;
78844;SDS011;68195;50.854;2.860;2023-07-13T15:28:04;2.42;;;1.63;;
78844;SDS011;68195;50.854;2.860;2023-07-13T15:30:39;3.10;;;1.45;;
78844;SDS011;68195;50.854;2.860;2023-07-13T15:33:16;3.85;;;1.20;;
78844;SDS011;68195;50.854;2.860;2023-07-13T15:35:48;3.70;;;1.23;;
78844;SDS011;68195;50.854;2.860;2023-07-13T15:38:17;4.22;;;1.25;;
78844;SDS011;68195;50.854;2.860;2023-07-13T15:40:45;2.67;;;1.02;;
78844;SDS011;68195;50.854;2.860;2023-07-13T15:43:11;2.35;;;0.73;;
78844;SDS011;68195;50.854;2.860;2023-07-13T15:45:38;2.88;;;1.27;;
78844;SDS011;68195;50.854;2.860;2023-07-13T15:48:12;2.15;;;1.00;;
78844;SDS011;68195;50.854;2.860;2023-07-13T15:50:47;2.65;;;1.10;;
78844;SDS011;68195;50.854;2.860;2023-07-13T15:53:24;2.90;;;1.15;;
78844;SDS011;68195;50.854;2.860;2023-07-13T15:55:54;4.10;;;1.27;;
78844;SDS011;68195;50.854;2.860;2023-07-13T15:58:20;2.42;;;1.00;;
78844;SDS011;68195;50.854;2.860;2023-07-13T16:00:46;2.03;;;1.15;;